Dillon, CO

1:14 AM MDT on September 22, 2014 (GMT -0600)
Berthoud Pass | Change Station
CLOSE
Current Station
Airport
Location: Berthoud Pass,
Elevation: 12490 ft
Nearby Weather Stations

Elev 12490 ft 39.79 °N, 105.76 °W | Updated 20 minutes ago

Overcast
Overcast
37 °F
Feels Like 34 °F
N
5
Wind Variable Wind from SSE

Today
High -- | Low -- °F
--% Chance of Precip.
Yesterday
High -- | Low -- °F
Precip. -- in
6:51 AM 7:00 PM
Waning Crescent, 4% visible
Pressure 30.68 in
Visibility 10.0 miles
Clouds Scattered Clouds 100 ft
Scattered Clouds 1800 ft
Overcast 5000 ft
Windchill 34 °F
Dew Point 36 °F
Humidity 93%
Rainfall 0.00 in
Snow Depth Not available.
UV 0 out of 12
Pollen 6.60 out of 12
Air Quality Not available.
Flu Activity Not available.
METAR K0CO 220654Z AUTO 15004KT 10SM SCT001 SCT018 OVC050 03/02 A3068 RMK AO2

More Conditions Fewer Conditions

Pressure 30.68 in
Visibility 10.0 miles
Clouds Scattered Clouds 100 ft
Scattered Clouds 1800 ft
Overcast 5000 ft
Windchill 34 °F
Dew Point 36 °F
Humidity 93%
Rainfall 0.00 in
Snow Depth Not available.
UV 0 out of 12
Pollen 6.60 out of 12
Air Quality Not available.
Flu Activity Not available.
METAR K0CO 220654Z AUTO 15004KT 10SM SCT001 SCT018 OVC050 03/02 A3068 RMK AO2

More Conditions Fewer Conditions

Nowcast | as of 12:51 am MDT on September 22, 2014

Scattered light rain showers will move across the mountains of north central Colorado during the early morning hours. Through 3 am the showers will be mainly from Hoosier Pass north along the Front Range mountains...and across grand and Jackson counties.

×

10-Day Weather Forecast

Almanac

Astronomy

Sep. 22, 2014 Rise Set
Actual Time 6:51 AM MDT 7:00 PM MDT
Civil Twilight 6:24 AM MDT 7:27 PM MDT
Nautical Twilight 5:53 AM MDT 7:59 PM MDT
Astronomical Twilight 5:21 AM MDT 8:30 PM MDT
Moon 5:23 AM MDT 6:09 PM MDT
Length of Visible Light 13h 02m
Length of Day
12h 09m
Tomorrow will be 2m 34s shorter.
Waning Crescent, 4% of the Moon is Illuminated
Today
Waning Crescent
Sep 24
New
Oct 1
First Quarter
Oct 8
Full
Oct 15
Last Quarter

Today's Extremes

State Highs State Lows

Community

WunderPhotos

Upload Photos

1,755,392 photos uploaded!

Nearby

Snow Depth

Station Depth Elevation
North Lost Trail 0 in 9200 ft
Vail Mountain 85 in 10300 ft
Porphyry Creek 0 in 10760 ft
Berthoud Summit 0 in 11300 ft
Phantom Valley 0 in 9030 ft

Earthquake Activity

City Distance Mag. Time & Date
No recent earthquake activity has been reported nearby.
Minimum magnitude displayed is 2.5.

Coastal Water Temperatures

Place Temperature
No Stations Reporting

Nearby Weather Stations